sensor_id;sensor_type;location;lat;lon;timestamp;temperature;humidity
20242;DHT22;10279;46.388;8.116;2023-12-20T00:00:37;6.10;99.90
20242;DHT22;10279;46.388;8.116;2023-12-20T00:03:04;6.10;99.90
20242;DHT22;10279;46.388;8.116;2023-12-20T00:05:32;6.00;99.90
20242;DHT22;10279;46.388;8.116;2023-12-20T00:08:00;6.00;99.90
20242;DHT22;10279;46.388;8.116;2023-12-20T00:10:27;6.00;99.90
20242;DHT22;10279;46.388;8.116;2023-12-20T00:12:54;6.00;99.90
20242;DHT22;10279;46.388;8.116;2023-12-20T00:15:21;6.00;99.90
20242;DHT22;10279;46.388;8.116;2023-12-20T00:17:48;6.00;99.90
20242;DHT22;10279;46.388;8.116;2023-12-20T00:20:15;6.00;99.90
20242;DHT22;10279;46.388;8.116;2023-12-20T00:22:43;6.00;99.90
20242;DHT22;10279;46.388;8.116;2023-12-20T00:25:10;6.10;99.90
20242;DHT22;10279;46.388;8.116;2023-12-20T00:27:37;6.10;99.90
20242;DHT22;10279;46.388;8.116;2023-12-20T00:30:04;6.10;99.90
20242;DHT22;10279;46.388;8.116;2023-12-20T00:32:32;6.20;99.90
20242;DHT22;10279;46.388;8.116;2023-12-20T00:34:59;6.10;99.90
20242;DHT22;10279;46.388;8.116;2023-12-20T00:37:26;6.00;99.90
20242;DHT22;10279;46.388;8.116;2023-12-20T00:39:53;6.10;99.90
20242;DHT22;10279;46.388;8.116;2023-12-20T00:42:20;6.10;99.90
20242;DHT22;10279;46.388;8.116;2023-12-20T00:44:47;6.10;99.90
20242;DHT22;10279;46.388;8.116;2023-12-20T00:47:14;6.10;99.90
20242;DHT22;10279;46.388;8.116;2023-12-20T00:49:42;6.00;99.90
20242;DHT22;10279;46.388;8.116;2023-12-20T00:52:09;6.00;99.90
20242;DHT22;10279;46.388;8.116;2023-12-20T00:54:36;5.90;99.90
20242;DHT22;10279;46.388;8.116;2023-12-20T00:57:03;5.80;99.90
20242;DHT22;10279;46.388;8.116;2023-12-20T00:59:30;5.90;99.90
20242;DHT22;10279;46.388;8.116;2023-12-20T01:01:58;5.90;99.90
20242;DHT22;10279;46.388;8.116;2023-12-20T01:04:25;5.90;99.90
20242;DHT22;10279;46.388;8.116;2023-12-20T01:06:52;5.90;99.90
20242;DHT22;10279;46.388;8.116;2023-12-20T01:09:20;5.90;99.90
20242;DHT22;10279;46.388;8.116;2023-12-20T01:11:50;5.90;99.90
20242;DHT22;10279;46.388;8.116;2023-12-20T01:14:17;5.90;99.90
20242;DHT22;10279;46.388;8.116;2023-12-20T01:16:44;5.90;99.90
20242;DHT22;10279;46.388;8.116;2023-12-20T01:19:12;5.90;99.90
20242;DHT22;10279;46.388;8.116;2023-12-20T01:21:40;6.00;99.90
20242;DHT22;10279;46.388;8.116;2023-12-20T01:24:07;6.00;99.90
20242;DHT22;10279;46.388;8.116;2023-12-20T01:26:34;5.90;99.90
20242;DHT22;10279;46.388;8.116;2023-12-20T01:29:01;5.90;99.90
20242;DHT22;10279;46.388;8.116;2023-12-20T01:31:29;5.90;99.90
20242;DHT22;10279;46.388;8.116;2023-12-20T01:33:56;5.80;99.90
20242;DHT22;10279;46.388;8.116;2023-12-20T01:36:23;5.90;99.90
20242;DHT22;10279;46.388;8.116;2023-12-20T01:38:51;6.00;99.90
20242;DHT22;10279;46.388;8.116;2023-12-20T01:41:18;5.90;99.90
20242;DHT22;10279;46.388;8.116;2023-12-20T01:43:45;5.80;99.90
20242;DHT22;10279;46.388;8.116;2023-12-20T01:46:18;5.90;99.90
20242;DHT22;10279;46.388;8.116;2023-12-20T01:48:46;5.90;99.90
20242;DHT22;10279;46.388;8.116;2023-12-20T01:51:14;5.80;99.90
20242;DHT22;10279;46.388;8.116;2023-12-20T01:53:42;5.80;99.90
20242;DHT22;10279;46.388;8.116;2023-12-20T01:56:10;5.80;99.90
20242;DHT22;10279;46.388;8.116;2023-12-20T01:58:44;5.90;99.90
20242;DHT22;10279;46.388;8.116;2023-12-20T02:01:12;5.80;99.90
20242;DHT22;10279;46.388;8.116;2023-12-20T02:03:43;5.70;99.90
20242;DHT22;10279;46.388;8.116;2023-12-20T02:06:11;5.70;99.90
20242;DHT22;10279;46.388;8.116;2023-12-20T02:08:38;5.70;99.90
20242;DHT22;10279;46.388;8.116;2023-12-20T02:11:05;5.80;99.90
20242;DHT22;10279;46.388;8.116;2023-12-20T02:13:33;5.80;99.90
20242;DHT22;10279;46.388;8.116;2023-12-20T02:16:00;5.70;99.90
20242;DHT22;10279;46.388;8.116;2023-12-20T02:18:28;5.80;99.90
20242;DHT22;10279;46.388;8.116;2023-12-20T02:20:55;5.70;99.90
20242;DHT22;10279;46.388;8.116;2023-12-20T02:23:23;5.80;99.90
20242;DHT22;10279;46.388;8.116;2023-12-20T02:25:50;5.70;99.90
20242;DHT22;10279;46.388;8.116;2023-12-20T02:28:17;5.80;99.90
20242;DHT22;10279;46.388;8.116;2023-12-20T02:30:45;5.80;99.90
20242;DHT22;10279;46.388;8.116;2023-12-20T02:33:14;5.70;99.90
20242;DHT22;10279;46.388;8.116;2023-12-20T02:35:42;5.70;99.90
20242;DHT22;10279;46.388;8.116;2023-12-20T02:38:09;5.70;99.90
20242;DHT22;10279;46.388;8.116;2023-12-20T02:40:36;5.80;99.90
20242;DHT22;10279;46.388;8.116;2023-12-20T02:43:03;5.80;99.90
20242;DHT22;10279;46.388;8.116;2023-12-20T02:45:30;5.80;99.90
20242;DHT22;10279;46.388;8.116;2023-12-20T02:47:58;5.60;99.90
20242;DHT22;10279;46.388;8.116;2023-12-20T02:50:25;5.50;99.90
20242;DHT22;10279;46.388;8.116;2023-12-20T02:52:52;5.40;99.90
20242;DHT22;10279;46.388;8.116;2023-12-20T02:55:19;5.40;99.90
20242;DHT22;10279;46.388;8.116;2023-12-20T02:57:46;5.40;99.90
20242;DHT22;10279;46.388;8.116;2023-12-20T03:00:14;5.40;99.90
20242;DHT22;10279;46.388;8.116;2023-12-20T03:02:41;5.50;99.90
20242;DHT22;10279;46.388;8.116;2023-12-20T03:05:08;5.40;99.90
20242;DHT22;10279;46.388;8.116;2023-12-20T03:07:37;5.50;99.90
20242;DHT22;10279;46.388;8.116;2023-12-20T03:10:05;5.50;99.90
20242;DHT22;10279;46.388;8.116;2023-12-20T03:12:46;5.50;99.90
20242;DHT22;10279;46.388;8.116;2023-12-20T03:15:13;5.60;99.90
20242;DHT22;10279;46.388;8.116;2023-12-20T03:17:40;5.60;99.90
20242;DHT22;10279;46.388;8.116;2023-12-20T03:20:08;5.70;99.90
20242;DHT22;10279;46.388;8.116;2023-12-20T03:22:36;5.60;99.90
20242;DHT22;10279;46.388;8.116;2023-12-20T03:25:03;5.60;99.90
20242;DHT22;10279;46.388;8.116;2023-12-20T03:27:30;5.60;99.90
20242;DHT22;10279;46.388;8.116;2023-12-20T03:29:57;5.60;99.90
20242;DHT22;10279;46.388;8.116;2023-12-20T03:32:24;5.60;99.90
20242;DHT22;10279;46.388;8.116;2023-12-20T03:34:52;5.50;99.90
20242;DHT22;10279;46.388;8.116;2023-12-20T03:37:19;5.50;99.90
20242;DHT22;10279;46.388;8.116;2023-12-20T03:39:46;5.50;99.90
20242;DHT22;10279;46.388;8.116;2023-12-20T03:42:14;5.40;99.90
20242;DHT22;10279;46.388;8.116;2023-12-20T03:44:41;5.50;99.90
20242;DHT22;10279;46.388;8.116;2023-12-20T03:47:08;5.50;99.90
20242;DHT22;10279;46.388;8.116;2023-12-20T03:49:35;5.50;99.90
20242;DHT22;10279;46.388;8.116;2023-12-20T03:52:05;5.50;99.90
20242;DHT22;10279;46.388;8.116;2023-12-20T03:54:33;5.60;99.90
20242;DHT22;10279;46.388;8.116;2023-12-20T03:57:00;5.60;99.90
20242;DHT22;10279;46.388;8.116;2023-12-20T03:59:27;5.60;99.90
20242;DHT22;10279;46.388;8.116;2023-12-20T04:01:54;5.60;99.90
20242;DHT22;10279;46.388;8.116;2023-12-20T04:04:21;5.50;99.90
20242;DHT22;10279;46.388;8.116;2023-12-20T04:06:49;5.50;99.90
20242;DHT22;10279;46.388;8.116;2023-12-20T04:09:16;5.50;99.90
20242;DHT22;10279;46.388;8.116;2023-12-20T04:11:43;5.40;99.90
20242;DHT22;10279;46.388;8.116;2023-12-20T04:14:10;5.50;99.90
20242;DHT22;10279;46.388;8.116;2023-12-20T04:16:38;5.40;99.90
20242;DHT22;10279;46.388;8.116;2023-12-20T04:19:06;5.30;99.90
20242;DHT22;10279;46.388;8.116;2023-12-20T04:21:33;5.30;99.90
20242;DHT22;10279;46.388;8.116;2023-12-20T04:24:00;5.30;99.90
20242;DHT22;10279;46.388;8.116;2023-12-20T04:26:27;5.30;99.90
20242;DHT22;10279;46.388;8.116;2023-12-20T04:28:54;5.30;99.90
20242;DHT22;10279;46.388;8.116;2023-12-20T04:31:21;5.30;99.90
20242;DHT22;10279;46.388;8.116;2023-12-20T04:33:49;5.20;99.90
20242;DHT22;10279;46.388;8.116;2023-12-20T04:36:16;5.10;99.90
20242;DHT22;10279;46.388;8.116;2023-12-20T04:38:43;5.10;99.90
20242;DHT22;10279;46.388;8.116;2023-12-20T04:41:10;5.10;99.90
20242;DHT22;10279;46.388;8.116;2023-12-20T04:43:37;5.10;99.90
20242;DHT22;10279;46.388;8.116;2023-12-20T04:46:04;4.90;99.90
20242;DHT22;10279;46.388;8.116;2023-12-20T04:48:31;4.50;99.90
20242;DHT22;10279;46.388;8.116;2023-12-20T04:50:58;4.20;99.90
20242;DHT22;10279;46.388;8.116;2023-12-20T04:53:25;4.00;99.90
20242;DHT22;10279;46.388;8.116;2023-12-20T04:55:53;3.90;99.90
20242;DHT22;10279;46.388;8.116;2023-12-20T04:58:20;3.90;99.90
20242;DHT22;10279;46.388;8.116;2023-12-20T05:00:47;3.90;99.90
20242;DHT22;10279;46.388;8.116;2023-12-20T05:03:14;4.00;99.90
20242;DHT22;10279;46.388;8.116;2023-12-20T05:05:41;4.10;99.90
20242;DHT22;10279;46.388;8.116;2023-12-20T05:08:08;4.20;99.90
20242;DHT22;10279;46.388;8.116;2023-12-20T05:10:36;4.10;99.90
20242;DHT22;10279;46.388;8.116;2023-12-20T05:13:03;4.00;99.90
20242;DHT22;10279;46.388;8.116;2023-12-20T05:15:30;4.00;99.90
20242;DHT22;10279;46.388;8.116;2023-12-20T05:17:57;4.10;99.90
20242;DHT22;10279;46.388;8.116;2023-12-20T05:20:25;4.20;99.90
20242;DHT22;10279;46.388;8.116;2023-12-20T05:22:52;4.30;99.90
20242;DHT22;10279;46.388;8.116;2023-12-20T05:25:19;4.30;99.90
20242;DHT22;10279;46.388;8.116;2023-12-20T05:27:47;4.40;99.90
20242;DHT22;10279;46.388;8.116;2023-12-20T05:30:15;4.40;99.90
20242;DHT22;10279;46.388;8.116;2023-12-20T05:32:42;4.40;99.90
20242;DHT22;10279;46.388;8.116;2023-12-20T05:35:10;4.40;99.90
20242;DHT22;10279;46.388;8.116;2023-12-20T05:37:37;4.50;99.90
20242;DHT22;10279;46.388;8.116;2023-12-20T05:40:05;4.50;99.90
20242;DHT22;10279;46.388;8.116;2023-12-20T05:42:32;4.50;99.90
20242;DHT22;10279;46.388;8.116;2023-12-20T05:44:59;4.50;99.90
20242;DHT22;10279;46.388;8.116;2023-12-20T05:47:26;4.50;99.90
20242;DHT22;10279;46.388;8.116;2023-12-20T05:49:53;4.40;99.90
20242;DHT22;10279;46.388;8.116;2023-12-20T05:52:24;4.50;99.90
20242;DHT22;10279;46.388;8.116;2023-12-20T05:54:51;4.60;99.90
20242;DHT22;10279;46.388;8.116;2023-12-20T05:57:19;4.60;99.90
20242;DHT22;10279;46.388;8.116;2023-12-20T05:59:46;4.70;99.90
20242;DHT22;10279;46.388;8.116;2023-12-20T06:02:13;4.60;99.90
20242;DHT22;10279;46.388;8.116;2023-12-20T06:04:42;4.60;99.90
20242;DHT22;10279;46.388;8.116;2023-12-20T06:07:14;4.50;99.90
20242;DHT22;10279;46.388;8.116;2023-12-20T06:09:41;4.50;99.90
20242;DHT22;10279;46.388;8.116;2023-12-20T06:12:09;4.50;99.90
20242;DHT22;10279;46.388;8.116;2023-12-20T06:14:36;4.60;99.90
20242;DHT22;10279;46.388;8.116;2023-12-20T06:17:03;4.70;99.90
20242;DHT22;10279;46.388;8.116;2023-12-20T06:19:30;4.70;99.90
20242;DHT22;10279;46.388;8.116;2023-12-20T06:21:58;4.70;99.90
20242;DHT22;10279;46.388;8.116;2023-12-20T06:24:25;4.70;99.90
20242;DHT22;10279;46.388;8.116;2023-12-20T06:26:55;4.60;99.90
20242;DHT22;10279;46.388;8.116;2023-12-20T06:29:22;4.60;99.90
20242;DHT22;10279;46.388;8.116;2023-12-20T06:31:50;4.60;99.90
20242;DHT22;10279;46.388;8.116;2023-12-20T06:34:17;4.70;99.90
20242;DHT22;10279;46.388;8.116;2023-12-20T06:36:44;4.70;99.90
20242;DHT22;10279;46.388;8.116;2023-12-20T06:39:12;4.70;99.90
20242;DHT22;10279;46.388;8.116;2023-12-20T06:41:40;4.70;99.90
20242;DHT22;10279;46.388;8.116;2023-12-20T06:44:07;4.60;99.90
20242;DHT22;10279;46.388;8.116;2023-12-20T06:46:34;4.60;99.90
20242;DHT22;10279;46.388;8.116;2023-12-20T06:49:01;4.60;99.90
20242;DHT22;10279;46.388;8.116;2023-12-20T06:51:29;4.70;99.90
20242;DHT22;10279;46.388;8.116;2023-12-20T06:53:57;4.60;99.90
20242;DHT22;10279;46.388;8.116;2023-12-20T06:56:25;4.70;99.90
20242;DHT22;10279;46.388;8.116;2023-12-20T06:58:52;4.70;99.90
20242;DHT22;10279;46.388;8.116;2023-12-20T07:01:19;4.70;99.90
20242;DHT22;10279;46.388;8.116;2023-12-20T07:03:46;4.70;99.90
20242;DHT22;10279;46.388;8.116;2023-12-20T07:06:16;4.80;99.90
20242;DHT22;10279;46.388;8.116;2023-12-20T07:08:44;4.80;99.90
20242;DHT22;10279;46.388;8.116;2023-12-20T07:11:12;4.90;99.90
20242;DHT22;10279;46.388;8.116;2023-12-20T07:13:39;4.80;99.90
20242;DHT22;10279;46.388;8.116;2023-12-20T07:16:06;4.90;99.90
20242;DHT22;10279;46.388;8.116;2023-12-20T07:18:33;4.80;99.90
20242;DHT22;10279;46.388;8.116;2023-12-20T07:21:01;4.80;99.90
20242;DHT22;10279;46.388;8.116;2023-12-20T07:23:28;4.80;99.90
20242;DHT22;10279;46.388;8.116;2023-12-20T07:25:55;4.80;99.90
20242;DHT22;10279;46.388;8.116;2023-12-20T07:28:22;4.90;99.90
20242;DHT22;10279;46.388;8.116;2023-12-20T07:30:49;4.80;99.90
20242;DHT22;10279;46.388;8.116;2023-12-20T07:33:17;4.80;99.90
20242;DHT22;10279;46.388;8.116;2023-12-20T07:35:44;4.80;99.90
20242;DHT22;10279;46.388;8.116;2023-12-20T07:38:12;4.80;99.90
20242;DHT22;10279;46.388;8.116;2023-12-20T07:40:39;4.80;99.90
20242;DHT22;10279;46.388;8.116;2023-12-20T07:43:06;4.80;99.90
20242;DHT22;10279;46.388;8.116;2023-12-20T07:45:34;4.70;99.90
20242;DHT22;10279;46.388;8.116;2023-12-20T07:48:01;4.80;99.90
20242;DHT22;10279;46.388;8.116;2023-12-20T07:50:28;4.80;99.90
20242;DHT22;10279;46.388;8.116;2023-12-20T07:52:56;4.90;99.90
20242;DHT22;10279;46.388;8.116;2023-12-20T07:55:23;4.90;99.90
20242;DHT22;10279;46.388;8.116;2023-12-20T07:57:50;5.00;99.90
20242;DHT22;10279;46.388;8.116;2023-12-20T08:00:18;5.00;99.90
20242;DHT22;10279;46.388;8.116;2023-12-20T08:02:45;5.00;99.90
20242;DHT22;10279;46.388;8.116;2023-12-20T08:05:13;4.90;99.90
20242;DHT22;10279;46.388;8.116;2023-12-20T08:07:42;4.90;99.90
20242;DHT22;10279;46.388;8.116;2023-12-20T08:10:10;4.90;99.90
20242;DHT22;10279;46.388;8.116;2023-12-20T08:12:38;4.90;99.90
20242;DHT22;10279;46.388;8.116;2023-12-20T08:15:07;4.90;99.90
20242;DHT22;10279;46.388;8.116;2023-12-20T08:17:35;5.00;99.90
20242;DHT22;10279;46.388;8.116;2023-12-20T08:20:02;5.00;99.90
20242;DHT22;10279;46.388;8.116;2023-12-20T08:22:29;5.00;99.90
20242;DHT22;10279;46.388;8.116;2023-12-20T08:24:57;5.00;99.90
20242;DHT22;10279;46.388;8.116;2023-12-20T08:27:24;5.00;99.90
20242;DHT22;10279;46.388;8.116;2023-12-20T08:29:52;5.00;99.90
20242;DHT22;10279;46.388;8.116;2023-12-20T08:32:19;5.00;99.90
20242;DHT22;10279;46.388;8.116;2023-12-20T08:34:46;5.00;99.90
20242;DHT22;10279;46.388;8.116;2023-12-20T08:37:14;5.00;99.90
20242;DHT22;10279;46.388;8.116;2023-12-20T08:39:41;5.00;99.90
20242;DHT22;10279;46.388;8.116;2023-12-20T08:42:11;5.00;99.90
20242;DHT22;10279;46.388;8.116;2023-12-20T08:44:38;5.10;99.90
20242;DHT22;10279;46.388;8.116;2023-12-20T08:47:05;5.00;99.90
20242;DHT22;10279;46.388;8.116;2023-12-20T08:49:33;5.00;99.90
20242;DHT22;10279;46.388;8.116;2023-12-20T08:52:00;4.90;99.90
20242;DHT22;10279;46.388;8.116;2023-12-20T08:54:27;4.90;99.90
20242;DHT22;10279;46.388;8.116;2023-12-20T08:56:54;4.90;99.90
20242;DHT22;10279;46.388;8.116;2023-12-20T08:59:22;5.00;99.90
20242;DHT22;10279;46.388;8.116;2023-12-20T09:01:49;5.00;99.90
20242;DHT22;10279;46.388;8.116;2023-12-20T09:04:21;5.00;99.90
20242;DHT22;10279;46.388;8.116;2023-12-20T09:06:48;5.10;99.90
20242;DHT22;10279;46.388;8.116;2023-12-20T09:09:15;5.10;99.90
20242;DHT22;10279;46.388;8.116;2023-12-20T09:11:43;5.10;99.90
20242;DHT22;10279;46.388;8.116;2023-12-20T09:14:13;5.00;99.90
20242;DHT22;10279;46.388;8.116;2023-12-20T09:16:40;4.90;99.90
20242;DHT22;10279;46.388;8.116;2023-12-20T09:19:08;4.90;99.90
20242;DHT22;10279;46.388;8.116;2023-12-20T09:21:35;4.90;99.90
20242;DHT22;10279;46.388;8.116;2023-12-20T09:24:02;4.90;99.90
20242;DHT22;10279;46.388;8.116;2023-12-20T09:26:29;5.00;99.90
20242;DHT22;10279;46.388;8.116;2023-12-20T09:28:56;5.00;99.90
20242;DHT22;10279;46.388;8.116;2023-12-20T09:31:24;5.10;99.90
20242;DHT22;10279;46.388;8.116;2023-12-20T09:33:51;5.10;99.90
20242;DHT22;10279;46.388;8.116;2023-12-20T09:36:19;5.10;99.90
20242;DHT22;10279;46.388;8.116;2023-12-20T09:38:46;5.20;99.90
20242;DHT22;10279;46.388;8.116;2023-12-20T09:41:13;5.20;99.90
20242;DHT22;10279;46.388;8.116;2023-12-20T09:43:42;5.20;99.90
20242;DHT22;10279;46.388;8.116;2023-12-20T09:46:10;5.20;99.90
20242;DHT22;10279;46.388;8.116;2023-12-20T09:48:41;5.30;99.90
20242;DHT22;10279;46.388;8.116;2023-12-20T09:51:09;5.40;99.90
20242;DHT22;10279;46.388;8.116;2023-12-20T09:53:37;5.40;99.90
20242;DHT22;10279;46.388;8.116;2023-12-20T09:56:06;5.30;99.90
20242;DHT22;10279;46.388;8.116;2023-12-20T09:58:36;5.30;99.90
20242;DHT22;10279;46.388;8.116;2023-12-20T10:01:06;5.30;99.90
20242;DHT22;10279;46.388;8.116;2023-12-20T10:03:34;5.40;99.90
20242;DHT22;10279;46.388;8.116;2023-12-20T10:06:02;5.40;99.90
20242;DHT22;10279;46.388;8.116;2023-12-20T10:08:30;5.40;99.90
20242;DHT22;10279;46.388;8.116;2023-12-20T10:10:59;5.50;99.90
20242;DHT22;10279;46.388;8.116;2023-12-20T10:13:29;5.50;99.90
20242;DHT22;10279;46.388;8.116;2023-12-20T10:15:57;5.60;99.90
20242;DHT22;10279;46.388;8.116;2023-12-20T10:18:24;5.60;99.90
20242;DHT22;10279;46.388;8.116;2023-12-20T10:21:06;5.50;99.90
20242;DHT22;10279;46.388;8.116;2023-12-20T10:23:37;5.40;99.90
20242;DHT22;10279;46.388;8.116;2023-12-20T10:26:06;5.40;99.90
20242;DHT22;10279;46.388;8.116;2023-12-20T10:28:34;5.40;99.90
20242;DHT22;10279;46.388;8.116;2023-12-20T10:31:02;5.40;99.90
20242;DHT22;10279;46.388;8.116;2023-12-20T10:33:31;5.50;99.90
20242;DHT22;10279;46.388;8.116;2023-12-20T10:36:01;5.60;99.90
20242;DHT22;10279;46.388;8.116;2023-12-20T10:38:30;5.60;99.90
20242;DHT22;10279;46.388;8.116;2023-12-20T10:40:58;5.70;99.90
20242;DHT22;10279;46.388;8.116;2023-12-20T10:43:28;5.70;99.90
20242;DHT22;10279;46.388;8.116;2023-12-20T10:45:58;5.70;99.90
20242;DHT22;10279;46.388;8.116;2023-12-20T10:48:26;5.60;99.90
20242;DHT22;10279;46.388;8.116;2023-12-20T10:50:58;5.50;99.90
20242;DHT22;10279;46.388;8.116;2023-12-20T10:53:25;5.40;99.90
20242;DHT22;10279;46.388;8.116;2023-12-20T10:55:55;5.10;99.90
20242;DHT22;10279;46.388;8.116;2023-12-20T10:58:25;4.90;99.90
20242;DHT22;10279;46.388;8.116;2023-12-20T11:01:00;4.80;99.90
20242;DHT22;10279;46.388;8.116;2023-12-20T11:03:34;4.80;99.90
20242;DHT22;10279;46.388;8.116;2023-12-20T11:08:47;4.80;99.90
20242;DHT22;10279;46.388;8.116;2023-12-20T11:11:27;4.90;99.90
20242;DHT22;10279;46.388;8.116;2023-12-20T11:14:16;5.00;99.90
20242;DHT22;10279;46.388;8.116;2023-12-20T11:16:45;5.10;99.90
20242;DHT22;10279;46.388;8.116;2023-12-20T11:19:23;5.20;99.90
20242;DHT22;10279;46.388;8.116;2023-12-20T11:21:50;5.30;99.90
20242;DHT22;10279;46.388;8.116;2023-12-20T11:24:22;5.40;99.90
20242;DHT22;10279;46.388;8.116;2023-12-20T11:26:56;5.40;99.90
20242;DHT22;10279;46.388;8.116;2023-12-20T11:29:35;5.40;99.90
20242;DHT22;10279;46.388;8.116;2023-12-20T11:32:27;5.40;99.90
20242;DHT22;10279;46.388;8.116;2023-12-20T11:35:16;5.40;99.90
20242;DHT22;10279;46.388;8.116;2023-12-20T11:37:40;5.40;99.90
20242;DHT22;10279;46.388;8.116;2023-12-20T11:40:15;5.30;99.90
20242;DHT22;10279;46.388;8.116;2023-12-20T11:42:45;5.10;99.90
20242;DHT22;10279;46.388;8.116;2023-12-20T11:45:18;5.00;99.90
20242;DHT22;10279;46.388;8.116;2023-12-20T11:47:50;4.80;99.90
20242;DHT22;10279;46.388;8.116;2023-12-20T11:50:18;4.70;99.90
20242;DHT22;10279;46.388;8.116;2023-12-20T11:52:47;4.80;99.90
20242;DHT22;10279;46.388;8.116;2023-12-20T11:55:14;4.80;99.90
20242;DHT22;10279;46.388;8.116;2023-12-20T11:57:42;4.80;99.90
20242;DHT22;10279;46.388;8.116;2023-12-20T12:00:11;4.90;99.90
20242;DHT22;10279;46.388;8.116;2023-12-20T12:02:38;5.00;99.90
20242;DHT22;10279;46.388;8.116;2023-12-20T12:05:06;5.10;99.90
20242;DHT22;10279;46.388;8.116;2023-12-20T12:07:34;5.20;99.90
20242;DHT22;10279;46.388;8.116;2023-12-20T12:10:02;5.20;99.90
20242;DHT22;10279;46.388;8.116;2023-12-20T12:12:31;5.30;99.90
20242;DHT22;10279;46.388;8.116;2023-12-20T12:14:59;5.30;99.90
20242;DHT22;10279;46.388;8.116;2023-12-20T12:17:26;5.40;99.90
20242;DHT22;10279;46.388;8.116;2023-12-20T12:20:05;5.40;99.90
20242;DHT22;10279;46.388;8.116;2023-12-20T12:22:33;5.50;99.90
20242;DHT22;10279;46.388;8.116;2023-12-20T12:25:10;5.50;99.90
20242;DHT22;10279;46.388;8.116;2023-12-20T12:27:41;5.50;99.90
20242;DHT22;10279;46.388;8.116;2023-12-20T12:30:10;5.50;99.90
20242;DHT22;10279;46.388;8.116;2023-12-20T12:32:40;5.50;99.90
20242;DHT22;10279;46.388;8.116;2023-12-20T12:35:08;5.50;99.90
20242;DHT22;10279;46.388;8.116;2023-12-20T12:37:40;5.50;99.90
20242;DHT22;10279;46.388;8.116;2023-12-20T12:40:15;5.60;99.90
20242;DHT22;10279;46.388;8.116;2023-12-20T12:42:44;5.60;99.90
20242;DHT22;10279;46.388;8.116;2023-12-20T12:45:12;5.60;99.90
20242;DHT22;10279;46.388;8.116;2023-12-20T12:47:40;5.70;99.90
20242;DHT22;10279;46.388;8.116;2023-12-20T12:50:07;5.70;99.90
20242;DHT22;10279;46.388;8.116;2023-12-20T12:52:35;5.70;99.90
20242;DHT22;10279;46.388;8.116;2023-12-20T12:55:02;5.70;99.90
20242;DHT22;10279;46.388;8.116;2023-12-20T12:57:32;5.70;99.90
20242;DHT22;10279;46.388;8.116;2023-12-20T13:00:01;5.70;99.90
20242;DHT22;10279;46.388;8.116;2023-12-20T13:02:29;5.70;99.90
20242;DHT22;10279;46.388;8.116;2023-12-20T13:04:57;5.70;99.90
20242;DHT22;10279;46.388;8.116;2023-12-20T13:07:25;5.70;99.90
20242;DHT22;10279;46.388;8.116;2023-12-20T13:09:52;5.70;99.90
20242;DHT22;10279;46.388;8.116;2023-12-20T13:12:19;5.80;99.90
20242;DHT22;10279;46.388;8.116;2023-12-20T13:14:49;5.70;99.90
20242;DHT22;10279;46.388;8.116;2023-12-20T13:17:16;5.70;99.90
20242;DHT22;10279;46.388;8.116;2023-12-20T13:19:43;5.70;99.90
20242;DHT22;10279;46.388;8.116;2023-12-20T13:22:11;5.80;99.90
20242;DHT22;10279;46.388;8.116;2023-12-20T13:24:38;5.80;99.90
20242;DHT22;10279;46.388;8.116;2023-12-20T13:27:05;5.80;99.90
20242;DHT22;10279;46.388;8.116;2023-12-20T13:29:33;5.80;99.90
20242;DHT22;10279;46.388;8.116;2023-12-20T13:32:03;5.70;99.90
20242;DHT22;10279;46.388;8.116;2023-12-20T13:34:31;5.70;99.90
20242;DHT22;10279;46.388;8.116;2023-12-20T13:36:58;5.70;99.90
20242;DHT22;10279;46.388;8.116;2023-12-20T13:39:25;5.70;99.90
20242;DHT22;10279;46.388;8.116;2023-12-20T13:41:52;5.60;99.90
20242;DHT22;10279;46.388;8.116;2023-12-20T13:44:21;5.60;99.90
20242;DHT22;10279;46.388;8.116;2023-12-20T13:46:48;5.60;99.90
20242;DHT22;10279;46.388;8.116;2023-12-20T13:49:16;5.60;99.90
20242;DHT22;10279;46.388;8.116;2023-12-20T13:51:44;5.60;99.90
20242;DHT22;10279;46.388;8.116;2023-12-20T13:54:11;5.70;99.90
20242;DHT22;10279;46.388;8.116;2023-12-20T13:56:38;5.70;99.90
20242;DHT22;10279;46.388;8.116;2023-12-20T13:59:22;5.70;99.90
20242;DHT22;10279;46.388;8.116;2023-12-20T14:01:49;5.70;99.90
20242;DHT22;10279;46.388;8.116;2023-12-20T14:04:17;5.70;99.90
20242;DHT22;10279;46.388;8.116;2023-12-20T14:07:05;5.70;99.90
20242;DHT22;10279;46.388;8.116;2023-12-20T14:09:34;5.70;99.90
20242;DHT22;10279;46.388;8.116;2023-12-20T14:12:02;5.60;99.90
20242;DHT22;10279;46.388;8.116;2023-12-20T14:14:29;5.60;99.90
20242;DHT22;10279;46.388;8.116;2023-12-20T14:16:56;5.70;99.90
20242;DHT22;10279;46.388;8.116;2023-12-20T14:19:23;5.70;99.90
20242;DHT22;10279;46.388;8.116;2023-12-20T14:21:51;5.70;99.90
20242;DHT22;10279;46.388;8.116;2023-12-20T14:24:18;5.70;99.90
20242;DHT22;10279;46.388;8.116;2023-12-20T14:26:45;5.60;99.90
20242;DHT22;10279;46.388;8.116;2023-12-20T14:29:12;5.60;99.90
20242;DHT22;10279;46.388;8.116;2023-12-20T14:31:39;5.60;99.90
20242;DHT22;10279;46.388;8.116;2023-12-20T14:34:08;5.60;99.90
20242;DHT22;10279;46.388;8.116;2023-12-20T14:36:35;5.70;99.90
20242;DHT22;10279;46.388;8.116;2023-12-20T14:39:03;5.70;99.90
20242;DHT22;10279;46.388;8.116;2023-12-20T14:41:31;5.70;99.90
20242;DHT22;10279;46.388;8.116;2023-12-20T14:43:59;5.70;99.90
20242;DHT22;10279;46.388;8.116;2023-12-20T14:46:31;5.70;99.90
20242;DHT22;10279;46.388;8.116;2023-12-20T14:48:59;5.70;99.90
20242;DHT22;10279;46.388;8.116;2023-12-20T14:51:28;5.70;99.90
20242;DHT22;10279;46.388;8.116;2023-12-20T14:53:55;5.70;99.90
20242;DHT22;10279;46.388;8.116;2023-12-20T14:56:25;5.70;99.90
20242;DHT22;10279;46.388;8.116;2023-12-20T14:58:53;5.60;99.90
20242;DHT22;10279;46.388;8.116;2023-12-20T15:01:20;5.50;99.90
20242;DHT22;10279;46.388;8.116;2023-12-20T15:03:48;5.40;99.90
20242;DHT22;10279;46.388;8.116;2023-12-20T15:06:16;5.30;99.90
20242;DHT22;10279;46.388;8.116;2023-12-20T15:08:43;5.40;99.90
20242;DHT22;10279;46.388;8.116;2023-12-20T15:11:11;5.40;99.90
20242;DHT22;10279;46.388;8.116;2023-12-20T15:13:38;5.50;99.90
20242;DHT22;10279;46.388;8.116;2023-12-20T15:16:06;5.50;99.90
20242;DHT22;10279;46.388;8.116;2023-12-20T15:18:33;5.50;99.90
20242;DHT22;10279;46.388;8.116;2023-12-20T15:21:00;5.50;99.90
20242;DHT22;10279;46.388;8.116;2023-12-20T15:23:27;5.60;99.90
20242;DHT22;10279;46.388;8.116;2023-12-20T15:25:55;5.40;99.90
20242;DHT22;10279;46.388;8.116;2023-12-20T15:28:22;5.40;99.90
20242;DHT22;10279;46.388;8.116;2023-12-20T15:30:50;5.40;99.90
20242;DHT22;10279;46.388;8.116;2023-12-20T15:33:17;5.40;99.90
20242;DHT22;10279;46.388;8.116;2023-12-20T15:35:45;5.40;99.90
20242;DHT22;10279;46.388;8.116;2023-12-20T15:38:12;5.40;99.90
20242;DHT22;10279;46.388;8.116;2023-12-20T15:40:40;5.50;99.90
20242;DHT22;10279;46.388;8.116;2023-12-20T15:43:07;5.50;99.90
20242;DHT22;10279;46.388;8.116;2023-12-20T15:45:34;5.50;99.90
20242;DHT22;10279;46.388;8.116;2023-12-20T15:48:01;5.40;99.90
20242;DHT22;10279;46.388;8.116;2023-12-20T15:50:31;5.50;99.90
20242;DHT22;10279;46.388;8.116;2023-12-20T15:52:58;5.50;99.90